Time;durP1;ratioP1;P1;durP2;ratioP2;P2;SDS_P1;SDS_P2;PMS_P1;PMS_P2;Temp;Humidity;BMP_temperature;BMP_pressure;BME280_temperature;BME280_humidity;BME280_pressure;Samples;Min_cycle;Max_cycle;Signal;HPM_P1;HPM_P2
2022/01/18 00:06:03;;;;;;;23.98;1.52;;;3.40;99.90;;;;;;6328411;22;20100;-82
2022/01/18 00:08:51;;;;;;;31.35;1.70;;;3.50;99.90;;;;;;6235828;23;20020;-81
2022/01/18 00:11:28;;;;;;;22.77;1.30;;;3.50;99.90;;;;;;6307932;22;20003;-82
2022/01/18 00:14:07;;;;;;;17.98;2.25;;;3.50;99.90;;;;;;6324019;22;19999;-81
2022/01/18 00:16:50;;;;;;;27.52;1.42;;;3.40;99.90;;;;;;6323576;22;20466;-82
2022/01/18 00:19:15;;;;;;;39.10;2.13;;;3.40;99.90;;;;;;6324567;22;19995;-82
2022/01/18 00:24:16;;;;;;;32.55;2.10;;;3.40;99.90;;;;;;6334702;22;20071;-81
2022/01/18 00:26:41;;;;;;;28.55;2.10;;;3.20;99.90;;;;;;6322680;22;19996;-81
2022/01/18 00:29:11;;;;;;;37.35;2.92;;;3.30;99.90;;;;;;6322938;22;19995;-82
2022/01/18 00:34:23;;;;;;;22.05;1.83;;;3.20;99.90;;;;;;6334841;22;20016;-81
2022/01/18 00:39:17;;;;;;;28.75;3.28;;;3.50;99.90;;;;;;6324975;22;20018;-82
2022/01/18 00:41:43;;;;;;;22.33;2.33;;;;;;;;;;6324764;22;20003;-81
2022/01/18 00:44:10;;;;;;;17.85;1.70;;;3.60;99.90;;;;;;6324530;22;20003;-82
2022/01/18 00:46:37;;;;;;;22.75;1.55;;;3.60;99.90;;;;;;6324426;22;19995;-81
2022/01/18 00:49:04;;;;;;;65.90;3.05;;;3.60;99.90;;;;;;6325749;22;20007;-82
2022/01/18 00:51:37;;;;;;;29.27;2.30;;;3.50;99.90;;;;;;6324177;22;19995;-81
2022/01/18 00:54:04;;;;;;;26.45;1.73;;;6.50;99.90;;;;;;6324833;22;20014;-82
2022/01/18 00:56:31;;;;;;;20.10;1.02;;;3.50;99.90;;;;;;6326103;22;20003;-81
2022/01/18 00:58:59;;;;;;;24.70;1.35;;;3.40;99.90;;;;;;6325477;22;20082;-82
2022/01/18 01:01:27;;;;;;;28.10;1.75;;;3.30;99.90;;;;;;6325131;22;20426;-81
2022/01/18 01:03:57;;;;;;;20.45;1.65;;;3.40;99.90;;;;;;6325172;22;20017;-81
2022/01/18 01:06:23;;;;;;;54.53;2.85;;;3.30;99.90;;;;;;6327025;22;19995;-82
2022/01/18 01:08:49;;;;;;;28.55;1.95;;;3.40;99.90;;;;;;6328422;22;20476;-82
2022/01/18 01:11:15;;;;;;;20.52;1.88;;;3.40;99.90;;;;;;6326616;22;19995;-82
2022/01/18 01:13:44;;;;;;;18.90;2.03;;;3.10;99.90;;;;;;6327554;22;20002;-81
2022/01/18 01:19:08;;;;;;;13.18;1.70;;;3.30;99.90;;;;;;6329054;22;20018;-81
2022/01/18 01:45:33;;;;;;;37.40;1.88;;;4.70;99.90;;;;;;6309888;22;20007;-78
2022/01/18 01:48:00;;;;;;;22.38;2.17;;;3.50;99.90;;;;;;6309557;22;20000;-78
2022/01/18 01:50:38;;;;;;;14.60;2.05;;;3.50;99.90;;;;;;6307781;22;20002;-77
2022/01/18 01:53:04;;;;;;;14.20;1.75;;;3.40;99.90;;;;;;6307720;22;20074;-78
2022/01/18 01:55:29;;;;;;;14.48;1.75;;;3.50;99.90;;;;;;6307625;22;20007;-77
2022/01/18 01:57:55;;;;;;;28.48;2.25;;;3.40;99.90;;;;;;6307630;22;20057;-77
2022/01/18 02:00:21;;;;;;;9.45;1.25;;;3.50;99.90;;;;;;6309070;22;20331;-77
2022/01/18 02:02:47;;;;;;;22.98;2.03;;;3.50;99.90;;;;;;6307625;22;20058;-77
2022/01/18 02:05:13;;;;;;;12.77;1.80;;;3.50;99.90;;;;;;6307076;22;20053;-77
2022/01/18 02:07:39;;;;;;;14.45;1.38;;;3.50;99.90;;;;;;6309063;22;19999;-77
2022/01/18 02:10:10;;;;;;;23.73;2.03;;;3.50;99.90;;;;;;6309801;22;19995;-77
2022/01/18 02:12:36;;;;;;;15.55;1.42;;;3.50;99.90;;;;;;6309205;22;20431;-77
2022/01/18 02:15:10;;;;;;;26.88;1.25;;;3.50;99.90;;;;;;6309082;22;20006;-77
2022/01/18 02:23:18;;;;;;;24.35;1.45;;;3.40;99.90;;;;;;6309410;22;20018;-77
2022/01/18 02:25:43;;;;;;;18.00;1.52;;;3.40;99.90;;;;;;6309058;22;20003;-77
2022/01/18 02:28:10;;;;;;;15.07;1.83;;;3.40;99.90;;;;;;6308461;22;20019;-77
2022/01/18 02:30:36;;;;;;;15.82;1.77;;;3.40;99.90;;;;;;6306883;22;20003;-77
2022/01/18 02:33:02;;;;;;;14.45;1.38;;;3.40;99.90;;;;;;6308468;22;20049;-77
2022/01/18 02:35:35;;;;;;;9.85;1.40;;;3.30;99.90;;;;;;6306893;22;20003;-77
2022/01/18 02:38:01;;;;;;;14.63;1.45;;;3.30;99.90;;;;;;6308950;22;20019;-76
2022/01/18 02:40:27;;;;;;;13.18;1.30;;;3.30;99.90;;;;;;6307352;22;20026;-76
2022/01/18 02:43:46;;;;;;;13.25;1.45;;;3.30;99.90;;;;;;6308325;22;20068;-76
2022/01/18 02:45:47;;;;;;;15.10;1.33;;;3.30;99.90;;;;;;6308335;22;20089;-76
2022/01/18 02:48:12;;;;;;;6.28;1.00;;;3.20;99.90;;;;;;6308441;22;20495;-77
2022/01/18 02:50:38;;;;;;;17.50;1.55;;;3.20;99.90;;;;;;6306510;22;20007;-77
2022/01/18 02:53:03;;;;;;;6.68;1.17;;;3.20;99.90;;;;;;6308317;22;20054;-77
2022/01/18 02:55:29;;;;;;;11.60;1.30;;;3.20;99.90;;;;;;6306701;22;20419;-77
2022/01/18 02:58:02;;;;;;;12.38;1.25;;;3.20;99.90;;;;;;6308368;22;19996;-77
2022/01/18 03:00:41;;;;;;;20.15;1.65;;;3.20;99.90;;;;;;6308686;22;20073;-77
2022/01/18 03:03:14;;;;;;;;;;;3.20;99.90;;;;;;6307219;22;19999;-76
2022/01/18 03:05:41;;;;;;;20.88;1.60;;;3.20;99.90;;;;;;6306770;22;19903;-76
2022/01/18 03:08:11;;;;;;;22.52;2.15;;;3.20;99.90;;;;;;6310035;22;20081;-76
2022/01/18 03:10:38;;;;;;;11.65;1.27;;;3.30;99.90;;;;;;6312045;22;20035;-75
2022/01/18 03:13:05;;;;;;;33.58;1.90;;;3.20;99.90;;;;;;6311933;22;20003;-75
2022/01/18 03:15:32;;;;;;;26.42;2.13;;;3.20;99.90;;;;;;6314226;22;20407;-76
2022/01/18 03:17:58;;;;;;;29.08;2.05;;;3.20;99.90;;;;;;6316736;22;20002;-76
2022/01/18 03:20:24;;;;;;;31.25;1.77;;;3.20;99.90;;;;;;6315124;22;20022;-76
2022/01/18 03:22:50;;;;;;;21.42;1.50;;;3.30;99.90;;;;;;6314241;22;20428;-76
2022/01/18 03:28:05;;;;;;;27.52;2.10;;;3.30;99.90;;;;;;6324801;22;20003;-77
2022/01/18 03:30:36;;;;;;;24.83;1.27;;;3.30;99.90;;;;;;6310746;22;19995;-77
2022/01/18 03:33:05;;;;;;;25.83;1.55;;;3.30;99.90;;;;;;6310134;22;20437;-77
2022/01/18 03:35:31;;;;;;;12.55;1.80;;;3.30;99.90;;;;;;6309554;22;20007;-76
2022/01/18 03:37:56;;;;;;;9.77;1.13;;;3.30;99.90;;;;;;6312263;22;20057;-76
2022/01/18 03:40:23;;;;;;;7.18;1.55;;;3.20;99.90;;;;;;6316147;22;20014;-78
2022/01/18 03:42:49;;;;;;;17.70;1.27;;;3.30;99.90;;;;;;6307979;22;20006;-77
2022/01/18 03:45:19;;;;;;;20.85;1.20;;;3.30;99.90;;;;;;6306295;22;20003;-77
2022/01/18 03:47:45;;;;;;;14.32;1.60;;;3.40;99.90;;;;;;6306855;22;20021;-77
2022/01/18 03:50:13;;;;;;;15.32;1.45;;;3.40;99.90;;;;;;6306940;22;20102;-77
2022/01/18 03:52:40;;;;;;;14.77;0.98;;;3.40;99.90;;;;;;6308402;22;20023;-77
2022/01/18 03:55:08;;;;;;;19.48;1.65;;;3.50;99.90;;;;;;6306397;22;20007;-77
2022/01/18 03:57:33;;;;;;;14.10;1.48;;;3.50;99.90;;;;;;6306589;22;20334;-77
2022/01/18 03:59:59;;;;;;;20.13;1.20;;;3.50;99.90;;;;;;6306663;22;20009;-77
2022/01/18 04:02:24;;;;;;;14.02;1.20;;;3.60;99.90;;;;;;6306767;22;20428;-77
2022/01/18 04:04:51;;;;;;;23.42;1.10;;;3.60;99.90;;;;;;6308027;22;19999;-77
2022/01/18 04:07:16;;;;;;;10.30;1.30;;;3.60;99.90;;;;;;6306597;22;20003;-77
2022/01/18 04:09:42;;;;;;;20.77;1.60;;;3.70;99.90;;;;;;6308665;22;20070;-77
2022/01/18 04:12:08;;;;;;;18.90;1.40;;;3.70;99.90;;;;;;6310702;22;20423;-77
2022/01/18 04:14:33;;;;;;;23.00;1.20;;;3.80;99.90;;;;;;6310255;22;20444;-77
2022/01/18 04:27:32;;;;;;;30.92;0.77;;;3.90;99.90;;;;;;6310497;22;20041;-78
2022/01/18 04:29:58;;;;;;;32.15;0.80;;;3.90;99.90;;;;;;6308937;22;20026;-78
2022/01/18 04:32:23;;;;;;;25.95;0.65;;;3.90;99.90;;;;;;6310277;22;19999;-78
2022/01/18 04:34:49;;;;;;;33.03;0.95;;;3.90;99.90;;;;;;6308922;22;20032;-78
2022/01/18 04:37:14;;;;;;;29.58;0.52;;;3.90;99.90;;;;;;6308829;22;20019;-78
2022/01/18 04:39:42;;;;;;;19.90;0.45;;;3.80;99.90;;;;;;6310219;22;20013;-78
2022/01/18 04:42:15;;;;;;;19.70;0.40;;;3.90;99.90;;;;;;6309964;22;20053;-78
2022/01/18 04:49:50;;;;;;;21.52;0.30;;;3.80;99.90;;;;;;6310414;22;20484;-78
2022/01/18 04:52:17;;;;;;;19.02;0.95;;;3.80;99.90;;;;;;6308378;22;20003;-78
2022/01/18 04:54:45;;;;;;;16.67;0.25;;;3.80;99.90;;;;;;6308502;22;20458;-78
2022/01/18 04:59:37;;;;;;;12.15;0.10;;;3.80;99.90;;;;;;6310394;22;20237;-78
2022/01/18 05:02:03;;;;;;;20.88;0.20;;;3.80;99.90;;;;;;6308049;22;20118;-77
2022/01/18 05:04:29;;;;;;;11.02;0.08;;;3.80;99.90;;;;;;6309758;22;19999;-77
2022/01/18 05:06:59;;;;;;;28.30;0.10;;;3.80;99.90;;;;;;6308380;22;20002;-77
2022/01/18 05:09:25;;;;;;;13.77;0.47;;;3.80;99.90;;;;;;6308267;22;20008;-77
2022/01/18 05:12:00;;;;;;;7.53;0.13;;;3.80;99.90;;;;;;6309676;22;20063;-77
2022/01/18 05:14:32;;;;;;;16.30;0.20;;;3.80;99.90;;;;;;6309833;22;20006;-77
2022/01/18 05:17:06;;;;;;;14.02;0.63;;;3.80;99.90;;;;;;6310009;22;20000;-77
2022/01/18 05:24:32;;;;;;;12.07;1.60;;;3.90;99.90;;;;;;6309628;22;20038;-77
2022/01/18 05:27:00;;;;;;;16.00;1.92;;;3.90;99.90;;;;;;6310015;22;20023;-77
2022/01/18 05:29:26;;;;;;;16.88;1.58;;;3.90;99.90;;;;;;6309487;22;19999;-77
2022/01/18 05:31:51;;;;;;;5.32;0.88;;;3.90;99.90;;;;;;6308323;22;20419;-77
2022/01/18 05:34:17;;;;;;;14.88;1.30;;;3.80;99.90;;;;;;6309234;22;20000;-77
2022/01/18 05:36:43;;;;;;;14.15;1.50;;;3.70;99.90;;;;;;6308071;22;20015;-77
2022/01/18 05:39:09;;;;;;;22.92;1.40;;;3.70;99.90;;;;;;6307466;22;20411;-77
2022/01/18 05:41:36;;;;;;;13.93;1.50;;;3.70;99.90;;;;;;6307759;22;20007;-77
2022/01/18 05:44:02;;;;;;;31.77;1.55;;;3.70;99.90;;;;;;6309550;22;20006;-77
2022/01/18 05:46:28;;;;;;;21.45;1.83;;;3.60;99.90;;;;;;6307866;22;19995;-77
2022/01/18 05:48:53;;;;;;;11.88;1.65;;;3.60;99.90;;;;;;6308932;22;19996;-77
2022/01/18 05:51:19;;;;;;;24.17;2.08;;;3.60;99.90;;;;;;6309113;22;20023;-77
2022/01/18 05:53:45;;;;;;;16.55;1.50;;;3.60;99.90;;;;;;6309540;22;20007;-77
2022/01/18 05:56:11;;;;;;;11.63;1.50;;;3.60;99.90;;;;;;6309711;22;19999;-77
2022/01/18 05:58:39;;;;;;;21.92;2.10;;;3.60;99.90;;;;;;6309127;22;20003;-77
2022/01/18 06:01:04;;;;;;;14.70;2.35;;;3.60;99.90;;;;;;6307543;22;20434;-76
2022/01/18 06:03:36;;;;;;;16.73;1.40;;;3.60;99.90;;;;;;6307333;22;20010;-75
2022/01/18 06:08:46;;;;;;;30.17;1.20;;;3.60;99.90;;;;;;6309055;22;20011;-77
2022/01/18 06:11:11;;;;;;;29.27;1.58;;;3.60;99.90;;;;;;6308867;22;20000;-77
2022/01/18 06:13:37;;;;;;;21.63;1.67;;;3.50;99.90;;;;;;6307118;22;20003;-78
2022/01/18 06:16:03;;;;;;;13.80;1.20;;;3.60;99.90;;;;;;6309134;22;20007;-77
2022/01/18 06:18:29;;;;;;;20.15;1.17;;;3.60;99.90;;;;;;6307157;22;20007;-77
2022/01/18 06:20:55;;;;;;;30.65;1.85;;;3.60;99.90;;;;;;6307292;22;20033;-76
2022/01/18 06:23:21;;;;;;;27.73;1.20;;;3.60;99.90;;;;;;6309035;22;20027;-77
2022/01/18 06:25:47;;;;;;;13.05;1.05;;;3.60;99.90;;;;;;6308829;22;20048;-77
2022/01/18 06:28:13;;;;;;;16.75;1.10;;;3.60;99.90;;;;;;6307216;22;20438;-77
2022/01/18 06:30:39;;;;;;;27.77;1.65;;;3.60;99.90;;;;;;6308589;22;20003;-74
2022/01/18 06:33:05;;;;;;;19.73;1.30;;;3.60;99.90;;;;;;6307655;22;19999;-74
2022/01/18 06:35:30;;;;;;;30.40;1.80;;;3.70;99.90;;;;;;6307996;22;20007;-74
2022/01/18 06:37:56;;;;;;;22.63;1.33;;;3.60;99.90;;;;;;6309113;22;20018;-74
2022/01/18 06:40:22;;;;;;;17.05;1.17;;;3.60;99.90;;;;;;6309664;22;20035;-74
2022/01/18 06:42:47;;;;;;;16.40;1.67;;;3.60;99.90;;;;;;6309446;22;20457;-74
2022/01/18 06:45:13;;;;;;;14.77;2.33;;;3.60;99.90;;;;;;6309496;22;20010;-74
2022/01/18 06:47:39;;;;;;;14.38;0.98;;;3.60;99.90;;;;;;6307630;22;19999;-74
2022/01/18 06:50:07;;;;;;;17.58;1.85;;;3.70;99.90;;;;;;6308960;22;20071;-74
2022/01/18 06:52:32;;;;;;;15.43;1.33;;;3.70;99.90;;;;;;6306924;22;19999;-74
2022/01/18 06:54:58;;;;;;;21.60;1.70;;;3.70;99.90;;;;;;6308549;22;20308;-74
2022/01/18 06:57:24;;;;;;;13.20;1.02;;;3.70;99.90;;;;;;6309356;22;19999;-75
2022/01/18 06:59:49;;;;;;;17.02;1.33;;;3.70;99.90;;;;;;6308655;22;20003;-74
2022/01/18 07:02:15;;;;;;;16.35;1.42;;;3.70;99.90;;;;;;6307502;22;20072;-74
2022/01/18 07:04:41;;;;;;;15.85;1.40;;;3.70;99.90;;;;;;6306690;22;20005;-75
2022/01/18 07:07:06;;;;;;;16.25;1.40;;;3.70;99.90;;;;;;6308674;22;20027;-76
2022/01/18 07:09:32;;;;;;;8.27;0.73;;;3.70;99.90;;;;;;6308612;22;20326;-75
2022/01/18 07:11:59;;;;;;;15.70;1.55;;;3.80;99.90;;;;;;6308918;22;20004;-74
2022/01/18 07:14:25;;;;;;;6.93;1.08;;;3.80;99.90;;;;;;6308261;22;19999;-77
2022/01/18 07:16:51;;;;;;;22.25;1.27;;;3.80;99.90;;;;;;6308497;22;20057;-76
2022/01/18 07:19:16;;;;;;;17.25;1.17;;;3.80;99.90;;;;;;6306739;22;20038;-76
2022/01/18 07:21:42;;;;;;;12.15;1.13;;;3.80;99.90;;;;;;6308711;22;20423;-76
2022/01/18 07:24:25;;;;;;;6.60;0.85;;;3.80;99.90;;;;;;6333225;22;20007;-77
2022/01/18 07:26:51;;;;;;;12.57;1.30;;;3.80;99.90;;;;;;6307957;22;20406;-77
2022/01/18 07:29:16;;;;;;;6.47;1.27;;;3.80;99.90;;;;;;6308479;22;20049;-77
2022/01/18 07:31:42;;;;;;;7.68;1.00;;;3.80;99.90;;;;;;6308502;22;20083;-77
2022/01/18 07:34:07;;;;;;;21.15;1.83;;;3.80;99.90;;;;;;6308719;22;19999;-77
2022/01/18 07:36:33;;;;;;;9.02;1.73;;;3.80;99.90;;;;;;6308481;22;20018;-77
2022/01/18 07:38:59;;;;;;;8.52;1.10;;;3.90;99.90;;;;;;6308701;22;20003;-77
2022/01/18 07:41:24;;;;;;;15.07;0.85;;;3.80;99.90;;;;;;6308512;22;20074;-76
2022/01/18 07:43:50;;;;;;;8.10;1.45;;;3.90;99.90;;;;;;6308248;22;20006;-77
2022/01/18 07:46:15;;;;;;;8.00;0.80;;;3.80;99.90;;;;;;6307981;22;20370;-77
2022/01/18 07:48:41;;;;;;;6.03;1.27;;;3.80;99.90;;;;;;6309242;22;20002;-76
2022/01/18 07:51:06;;;;;;;9.57;1.33;;;3.90;99.90;;;;;;6308549;22;20071;-76
2022/01/18 07:53:32;;;;;;;6.80;1.20;;;3.80;99.90;;;;;;6306962;22;19996;-76
2022/01/18 07:55:58;;;;;;;8.20;1.30;;;3.90;99.90;;;;;;6309430;22;20082;-77
2022/01/18 07:58:23;;;;;;;6.35;1.02;;;3.80;99.90;;;;;;6308129;22;20078;-77
2022/01/18 08:00:49;;;;;;;5.20;0.80;;;3.90;99.90;;;;;;6309860;22;20003;-76
2022/01/18 08:03:14;;;;;;;4.55;1.13;;;3.90;99.90;;;;;;6307346;22;20003;-76
2022/01/18 08:05:40;;;;;;;5.15;0.80;;;3.90;99.90;;;;;;6309077;22;20411;-77
2022/01/18 08:08:06;;;;;;;5.43;0.60;;;3.90;99.90;;;;;;6306293;22;20003;-76
2022/01/18 08:10:32;;;;;;;7.85;0.80;;;3.90;99.90;;;;;;6306811;22;20049;-76
2022/01/18 08:13:01;;;;;;;10.30;0.95;;;3.90;99.90;;;;;;6308849;22;19995;-77
2022/01/18 08:15:29;;;;;;;;;;;3.90;99.90;;;;;;6308558;22;20017;-77
2022/01/18 08:17:55;;;;;;;13.80;1.20;;;3.90;99.90;;;;;;6306719;22;20259;-77
2022/01/18 08:20:21;;;;;;;9.25;0.75;;;3.90;99.90;;;;;;6307539;22;20025;-76
2022/01/18 08:25:18;;;;;;;18.08;1.33;;;3.90;99.90;;;;;;6308168;22;20031;-77
2022/01/18 08:27:45;;;;;;;21.88;2.05;;;6.70;99.90;;;;;;6307988;22;20371;-77
2022/01/18 08:30:12;;;;;;;13.70;1.27;;;3.90;99.90;;;;;;6280288;22;20070;-77
2022/01/18 08:32:39;;;;;;;20.60;1.40;;;4.00;99.90;;;;;;6308002;22;19999;-77
2022/01/18 08:35:05;;;;;;;20.75;1.88;;;4.00;99.90;;;;;;6308189;22;20003;-76
2022/01/18 08:37:31;;;;;;;26.38;1.60;;;4.10;99.90;;;;;;6307672;22;20031;-76
2022/01/18 08:39:57;;;;;;;9.15;1.13;;;4.10;99.90;;;;;;6308328;22;19999;-76
2022/01/18 08:42:23;;;;;;;21.25;2.05;;;4.10;99.90;;;;;;6280576;22;20011;-76
2022/01/18 08:44:48;;;;;;;20.10;1.58;;;4.10;99.90;;;;;;6307686;22;20074;-76
2022/01/18 08:47:16;;;;;;;22.15;1.73;;;4.10;99.90;;;;;;6307813;22;20032;-76
2022/01/18 08:49:42;;;;;;;15.80;1.73;;;4.10;99.90;;;;;;6280508;22;20076;-76
2022/01/18 08:52:08;;;;;;;14.50;1.30;;;4.10;99.90;;;;;;6307977;22;20000;-76
2022/01/18 08:54:34;;;;;;;13.35;0.85;;;4.10;99.90;;;;;;6307752;22;20489;-74
2022/01/18 08:57:00;;;;;;;19.45;1.15;;;4.10;99.90;;;;;;6309553;22;19999;-73
2022/01/18 08:59:26;;;;;;;15.18;1.20;;;4.10;99.90;;;;;;6309363;22;20449;-77
2022/01/18 09:01:52;;;;;;;6.85;0.60;;;4.10;99.90;;;;;;6310051;22;19999;-77
2022/01/18 09:04:19;;;;;;;12.30;0.73;;;4.10;99.90;;;;;;6309749;22;20006;-77
2022/01/18 09:06:48;;;;;;;16.88;1.30;;;4.20;99.90;;;;;;6310474;22;20090;-77
2022/01/18 09:09:16;;;;;;;18.50;1.38;;;4.20;99.90;;;;;;6282294;22;20390;-77
2022/01/18 09:11:42;;;;;;;7.47;0.90;;;4.20;99.90;;;;;;6309884;22;20372;-77
2022/01/18 09:14:07;;;;;;;9.07;1.83;;;4.10;99.90;;;;;;6282459;22;20019;-76
2022/01/18 09:16:33;;;;;;;14.90;0.95;;;4.20;99.90;;;;;;6283275;22;20014;-76
2022/01/18 09:18:59;;;;;;;13.80;1.17;;;4.20;99.90;;;;;;6309840;22;20482;-77
2022/01/18 09:21:26;;;;;;;11.20;1.83;;;4.20;99.90;;;;;;6309364;22;20003;-77
2022/01/18 09:23:52;;;;;;;12.05;1.75;;;4.20;99.90;;;;;;6309610;22;20011;-77
2022/01/18 09:26:17;;;;;;;16.83;1.98;;;4.30;99.90;;;;;;6310012;22;20449;-76
2022/01/18 09:28:43;;;;;;;10.82;1.38;;;4.30;99.90;;;;;;6309963;22;20008;-77
2022/01/18 09:31:09;;;;;;;11.15;1.42;;;4.30;99.90;;;;;;6309521;22;20430;-77
2022/01/18 09:33:34;;;;;;;16.85;2.65;;;4.30;99.90;;;;;;6310069;22;20418;-77
2022/01/18 09:36:00;;;;;;;9.75;1.73;;;4.30;99.90;;;;;;6309742;22;20006;-77
2022/01/18 09:38:25;;;;;;;13.30;2.78;;;4.20;99.90;;;;;;6309682;22;20176;-76
2022/01/18 09:40:51;;;;;;;9.13;1.73;;;4.40;99.90;;;;;;6309203;22;20000;-76
2022/01/18 09:43:17;;;;;;;8.35;2.33;;;4.40;99.90;;;;;;6309602;22;20143;-76
2022/01/18 09:45:45;;;;;;;14.95;2.38;;;4.30;99.90;;;;;;6309303;22;20010;-76
2022/01/18 09:48:12;;;;;;;11.38;1.70;;;4.30;99.90;;;;;;6281963;22;19995;-76
2022/01/18 09:50:40;;;;;;;15.52;2.38;;;4.40;99.90;;;;;;6282219;22;19996;-76
2022/01/18 09:53:08;;;;;;;13.75;2.45;;;4.40;99.90;;;;;;6281844;22;20003;-76
2022/01/18 09:55:35;;;;;;;11.40;1.65;;;4.40;99.90;;;;;;6282141;22;19999;-76
2022/01/18 09:58:04;;;;;;;14.95;2.58;;;4.40;99.90;;;;;;6281599;22;20007;-76
2022/01/18 10:00:31;;;;;;;18.70;3.15;;;4.40;99.90;;;;;;6281509;22;20009;-76
2022/01/18 10:02:57;;;;;;;14.55;3.45;;;4.50;99.90;;;;;;6309638;22;20000;-76
2022/01/18 10:05:31;;;;;;;8.27;2.35;;;4.50;99.90;;;;;;6281912;22;20021;-76
2022/01/18 10:08:12;;;;;;;12.70;3.17;;;4.50;99.90;;;;;;6281124;22;20369;-76
2022/01/18 10:10:44;;;;;;;20.52;3.08;;;4.60;99.90;;;;;;6308806;22;20022;-77
2022/01/18 10:13:22;;;;;;;25.38;3.47;;;4.50;99.90;;;;;;6282026;22;20018;-76
2022/01/18 10:16:06;;;;;;;7.53;2.60;;;4.60;99.90;;;;;;6281724;22;20434;-76
2022/01/18 10:18:36;;;;;;;13.38;3.05;;;4.60;99.90;;;;;;6309548;22;20028;-76
2022/01/18 10:21:02;;;;;;;9.10;2.97;;;4.70;99.90;;;;;;6309276;22;20049;-77
2022/01/18 10:23:28;;;;;;;13.60;3.75;;;4.70;99.90;;;;;;6281286;22;20007;-77
2022/01/18 10:25:54;;;;;;;18.23;3.10;;;4.80;99.90;;;;;;6308540;22;19999;-77
2022/01/18 10:28:34;;;;;;;12.35;2.85;;;4.80;99.90;;;;;;6281224;22;20002;-77
2022/01/18 10:31:21;;;;;;;26.65;2.42;;;4.80;99.90;;;;;;6309271;22;19999;-77
2022/01/18 10:33:58;;;;;;;43.13;2.42;;;4.90;99.90;;;;;;6281484;22;20122;-78
2022/01/18 10:36:25;;;;;;;22.30;1.65;;;4.90;99.90;;;;;;6309338;22;20335;-78
2022/01/18 10:39:00;;;;;;;45.83;2.15;;;4.90;99.90;;;;;;6308387;22;20034;-77
2022/01/18 10:41:34;;;;;;;14.77;1.80;;;5.00;99.90;;;;;;6308907;22;20006;-78
2022/01/18 10:44:06;;;;;;;37.63;2.38;;;4.90;99.90;;;;;;6308882;22;20010;-77
2022/01/18 10:46:45;;;;;;;19.48;1.75;;;5.00;99.90;;;;;;6308425;22;19996;-78
2022/01/18 10:49:37;;;;;;;24.58;1.60;;;5.10;99.90;;;;;;6309122;22;19999;-78
2022/01/18 10:52:07;;;;;;;51.13;3.67;;;5.00;99.90;;;;;;6281962;22;20026;-77
2022/01/18 10:54:38;;;;;;;27.08;1.70;;;5.00;99.90;;;;;;6281031;22;20003;-77
2022/01/18 10:57:06;;;;;;;10.40;1.20;;;5.00;99.90;;;;;;6281117;22;20004;-78
2022/01/18 10:59:33;;;;;;;23.67;1.88;;;5.00;99.90;;;;;;6280733;22;20023;-77
2022/01/18 11:02:26;;;;;;;29.40;2.05;;;5.10;99.90;;;;;;6280935;22;20029;-77
2022/01/18 11:04:54;;;;;;;11.40;0.93;;;5.20;99.90;;;;;;6308412;22;20078;-77
2022/01/18 11:07:25;;;;;;;22.42;1.50;;;5.10;99.90;;;;;;6308351;22;20452;-77
2022/01/18 11:09:52;;;;;;;17.23;1.42;;;5.10;99.90;;;;;;6280827;22;20426;-77
2022/01/18 11:12:24;;;;;;;7.70;0.95;;;5.10;99.90;;;;;;6280678;22;20330;-77
2022/01/18 11:15:02;;;;;;;19.70;2.05;;;5.10;99.90;;;;;;6308374;22;20308;-78
2022/01/18 11:17:37;;;;;;;24.17;1.80;;;5.10;99.90;;;;;;6308313;22;20308;-77
2022/01/18 11:20:05;;;;;;;21.48;1.42;;;5.20;99.90;;;;;;6280414;22;20008;-77
2022/01/18 11:22:31;;;;;;;23.35;1.63;;;5.20;99.90;;;;;;6280884;22;19999;-77
2022/01/18 11:24:59;;;;;;;7.85;1.58;;;5.30;99.90;;;;;;6280488;22;20065;-77
2022/01/18 11:27:28;;;;;;;20.93;1.73;;;5.30;99.90;;;;;;6307818;22;19996;-77
2022/01/18 11:29:53;;;;;;;21.40;1.65;;;5.40;99.90;;;;;;6307866;22;20284;-77
2022/01/18 11:32:20;;;;;;;14.27;1.83;;;5.40;99.90;;;;;;6308479;22;19995;-76
2022/01/18 11:34:54;;;;;;;19.02;2.45;;;5.40;99.90;;;;;;6308045;22;20003;-77
2022/01/18 11:37:40;;;;;;;36.42;3.10;;;5.40;99.90;;;;;;6308574;22;20355;-78
2022/01/18 11:40:09;;;;;;;31.92;2.30;;;5.50;99.90;;;;;;6308040;22;20031;-78
2022/01/18 11:42:46;;;;;;;15.20;2.10;;;5.50;99.90;;;;;;6308234;22;20100;-78
2022/01/18 11:45:35;;;;;;;16.35;2.22;;;5.50;99.90;;;;;;6307985;22;20008;-77
2022/01/18 11:48:11;;;;;;;14.90;2.40;;;5.60;99.90;;;;;;6307880;22;20000;-77
2022/01/18 11:50:50;;;;;;;20.98;3.00;;;5.60;99.90;;;;;;6280295;22;20003;-77
2022/01/18 11:56:14;;;;;;;19.30;3.53;;;5.70;99.90;;;;;;6318226;22;20082;-78
2022/01/18 11:58:40;;;;;;;11.02;2.60;;;5.80;99.90;;;;;;6280923;22;20334;-78
2022/01/18 12:01:06;;;;;;;14.45;3.75;;;5.80;99.90;;;;;;6307382;22;20385;-78
2022/01/18 12:03:44;;;;;;;20.27;3.72;;;5.90;99.90;;;;;;6308123;22;20074;-78
2022/01/18 12:06:10;;;;;;;21.33;4.28;;;5.90;99.90;;;;;;6307532;22;19995;-78
2022/01/18 12:08:44;;;;;;;19.58;4.82;;;5.90;99.90;;;;;;6307847;22;20044;-78
2022/01/18 12:11:12;;;;;;;19.80;5.00;;;5.90;99.90;;;;;;6307554;22;20333;-77
2022/01/18 12:13:43;;;;;;;13.63;4.60;;;5.90;99.90;;;;;;6307553;22;19999;-77
2022/01/18 12:16:26;;;;;;;33.50;7.15;;;6.00;99.90;;;;;;6280123;22;20017;-77
2022/01/18 12:19:01;;;;;;;21.63;6.00;;;6.00;99.90;;;;;;6307553;22;20005;-77
2022/01/18 12:21:29;;;;;;;32.60;7.32;;;6.00;99.90;;;;;;6307496;22;20426;-78
2022/01/18 12:24:13;;;;;;;34.28;8.35;;;6.10;99.90;;;;;;6307504;22;20030;-77
2022/01/18 12:26:46;;;;;;;29.73;9.10;;;6.10;99.90;;;;;;6280248;22;20007;-77
2022/01/18 12:34:42;;;;;;;30.30;8.13;;;6.10;99.90;;;;;;6309744;22;20015;-72
2022/01/18 12:37:08;;;;;;;29.20;7.55;;;6.10;99.90;;;;;;6310057;22;20524;-73
2022/01/18 12:45:21;;;;;;;35.28;9.80;;;6.10;99.90;;;;;;6320058;22;20015;-72
2022/01/18 12:47:58;;;;;;;32.30;9.27;;;6.10;99.90;;;;;;6309678;22;20300;-72
2022/01/18 12:50:30;;;;;;;34.88;9.73;;;6.10;99.90;;;;;;6309212;22;20070;-72
2022/01/18 12:53:05;;;;;;;40.10;9.27;;;6.10;99.90;;;;;;6282024;22;20038;-78
2022/01/18 12:55:33;;;;;;;37.10;9.43;;;6.20;99.90;;;;;;6309407;22;20342;-77
2022/01/18 12:58:08;;;;;;;32.42;8.73;;;6.20;99.90;;;;;;6309591;22;20007;-77
2022/01/18 13:00:52;;;;;;;38.75;8.40;;;6.30;99.90;;;;;;6282071;22;20004;-77
2022/01/18 13:03:29;;;;;;;38.10;9.25;;;6.20;99.90;;;;;;6309743;22;20023;-77
2022/01/18 13:05:58;;;;;;;36.53;9.80;;;6.20;99.90;;;;;;6309571;22;20483;-77
2022/01/18 13:08:59;;;;;;;38.55;10.13;;;6.20;99.90;;;;;;6281817;22;20006;-78
2022/01/18 13:11:27;;;;;;;38.00;8.90;;;6.30;99.90;;;;;;6281630;22;19995;-78
2022/01/18 13:13:59;;;;;;;35.72;10.30;;;6.30;99.90;;;;;;6309169;22;20074;-78
2022/01/18 13:27:21;;;;;;;42.58;9.93;;;6.40;99.90;;;;;;6319755;22;20004;-78
2022/01/18 13:29:49;;;;;;;44.55;11.90;;;6.40;99.90;;;;;;6309583;22;20030;-78
2022/01/18 13:32:19;;;;;;;48.23;11.33;;;6.40;99.90;;;;;;6308882;22;20006;-78
2022/01/18 13:34:46;;;;;;;42.58;11.13;;;6.40;99.90;;;;;;6282024;22;19999;-78
2022/01/18 13:37:15;;;;;;;39.78;10.40;;;6.50;99.90;;;;;;6309222;22;20017;-78
2022/01/18 13:39:47;;;;;;;52.20;9.32;;;6.50;99.90;;;;;;6309039;22;20083;-77
2022/01/18 13:42:15;;;;;;;29.80;9.82;;;6.50;99.90;;;;;;6309554;22;19999;-77
2022/01/18 13:45:16;;;;;;;41.22;9.68;;;6.50;99.90;;;;;;6309058;22;20019;-77
2022/01/18 13:47:43;;;;;;;28.92;8.80;;;6.60;99.90;;;;;;6281500;22;20001;-78
2022/01/18 13:50:30;;;;;;;33.08;8.23;;;6.60;99.90;;;;;;6281297;22;20427;-77
2022/01/18 13:53:06;;;;;;;53.17;9.77;;;6.70;99.90;;;;;;6308678;22;19999;-78
2022/01/18 13:55:33;;;;;;;34.47;9.45;;;6.70;99.90;;;;;;6309045;22;20423;-78
2022/01/18 13:58:00;;;;;;;42.67;10.63;;;6.70;99.90;;;;;;6281259;22;19999;-78
2022/01/18 14:00:27;;;;;;;39.65;10.68;;;6.70;99.90;;;;;;6281510;22;20035;-79
2022/01/18 14:02:53;;;;;;;31.77;8.48;;;6.80;99.90;;;;;;6281282;22;20079;-78
2022/01/18 14:05:21;;;;;;;23.83;8.98;;;6.80;99.90;;;;;;6308842;22;20034;-78
2022/01/18 14:07:47;;;;;;;44.90;8.80;;;6.90;99.90;;;;;;6281154;22;20074;-78
2022/01/18 14:10:13;;;;;;;29.50;7.53;;;6.90;99.90;;;;;;6308387;22;20007;-78
2022/01/18 14:12:38;;;;;;;26.38;8.48;;;6.90;99.90;;;;;;6281177;22;20045;-76
2022/01/18 14:15:05;;;;;;;29.45;8.75;;;6.90;99.90;;;;;;6281057;22;20027;-75
2022/01/18 14:17:30;;;;;;;28.30;9.23;;;6.90;99.90;;;;;;6308289;22;20074;-75
2022/01/18 14:20:15;;;;;;;31.13;9.48;;;6.90;99.90;;;;;;6308201;22;20031;-76
2022/01/18 14:22:41;;;;;;;35.28;9.07;;;6.90;99.90;;;;;;6308380;22;20006;-75
2022/01/18 14:25:08;;;;;;;37.30;8.40;;;6.90;99.90;;;;;;6308103;22;20086;-74
2022/01/18 14:27:37;;;;;;;33.75;9.05;;;6.90;99.90;;;;;;6308296;22;20440;-75
2022/01/18 14:30:11;;;;;;;33.10;10.05;;;6.90;99.90;;;;;;6308184;22;20010;-77
2022/01/18 14:32:41;;;;;;;32.85;10.35;;;6.90;99.90;;;;;;6308449;22;20070;-76
2022/01/18 14:35:37;;;;;;;28.55;9.50;;;6.90;99.90;;;;;;6308198;22;20068;-76
2022/01/18 14:38:06;;;;;;;38.85;8.68;;;7.00;99.90;;;;;;6250101;22;20007;-78